LNBAK ENBR-ENSO
Flight info
| Callsign | LNBAK |
|---|---|
| Flight time | 0h 15m |
| Altitude | 2000 |
| Route | HORGEFJORD SELBJORN |
| Aircraft | C210/L-SBDGRY/S |
Departure
| Time | 2026-04-28 19:09 |
|---|---|
| Airport | Bergen Airport, Flesland (ENBR) |
Arrival
| Time | 2026-04-28 19:25 |
|---|---|
| Airport | Stord Airport, Sørstokken (ENSO) |
| Time | Latitude | Longitude | Altitude | Speed | Heading |
|---|---|---|---|---|---|
| 2026-04-28 18:52 | 60.29529 | 5.22624 | 151 ft | 0 kts | 72° |
| 2026-04-28 19:02 | 60.29532 | 5.22591 | 151 ft | 4 kts | 254° |
| 2026-04-28 19:03 | 60.29524 | 5.22517 | 151 ft | 6 kts | 275° |
| 2026-04-28 19:03 | 60.29546 | 5.22436 | 151 ft | 9 kts | 326° |
| 2026-04-28 19:03 | 60.29564 | 5.22298 | 151 ft | 14 kts | 269° |
| 2026-04-28 19:03 | 60.29504 | 5.22201 | 151 ft | 12 kts | 169° |
| 2026-04-28 19:04 | 60.29431 | 5.22226 | 150 ft | 8 kts | 192° |
| 2026-04-28 19:04 | 60.29397 | 5.22146 | 150 ft | 11 kts | 215° |
| 2026-04-28 19:04 | 60.29282 | 5.22159 | 149 ft | 20 kts | 172° |
| 2026-04-28 19:04 | 60.29141 | 5.22206 | 148 ft | 21 kts | 171° |
| 2026-04-28 19:05 | 60.29010 | 5.22256 | 146 ft | 17 kts | 171° |
| 2026-04-28 19:05 | 60.28927 | 5.22207 | 146 ft | 12 kts | 259° |
| 2026-04-28 19:05 | 60.28924 | 5.22163 | 145 ft | 0 kts | 265° |
| 2026-04-28 19:06 | 60.28924 | 5.22159 | 145 ft | 4 kts | 253° |
| 2026-04-28 19:07 | 60.28913 | 5.21965 | 145 ft | 17 kts | 307° |
| 2026-04-28 19:07 | 60.28928 | 5.21945 | 146 ft | 0 kts | 355° |
| 2026-04-28 19:08 | 60.28949 | 5.21946 | 146 ft | 17 kts | 353° |
| 2026-04-28 19:09 | 60.29266 | 5.21836 | 148 ft | 71 kts | 345° |
| 2026-04-28 19:09 | 60.29830 | 5.21633 | 292 ft | 85 kts | 349° |
| 2026-04-28 19:09 | 60.30394 | 5.21492 | 643 ft | 82 kts | 352° |
| 2026-04-28 19:09 | 60.30873 | 5.20958 | 850 ft | 89 kts | 284° |
| 2026-04-28 19:10 | 60.30741 | 5.19562 | 876 ft | 120 kts | 250° |
| 2026-04-28 19:10 | 60.30442 | 5.17860 | 903 ft | 136 kts | 251° |
| 2026-04-28 19:10 | 60.30112 | 5.15994 | 947 ft | 143 kts | 250° |
| 2026-04-28 19:10 | 60.29778 | 5.14101 | 992 ft | 147 kts | 251° |
| 2026-04-28 19:11 | 60.29092 | 5.12655 | 978 ft | 151 kts | 199° |
| 2026-04-28 19:11 | 60.28054 | 5.12781 | 997 ft | 151 kts | 168° |
| 2026-04-28 19:11 | 60.27013 | 5.13043 | 990 ft | 152 kts | 185° |
| 2026-04-28 19:11 | 60.25964 | 5.12914 | 987 ft | 151 kts | 171° |
| 2026-04-28 19:12 | 60.24996 | 5.13623 | 988 ft | 150 kts | 164° |
| 2026-04-28 19:12 | 60.23956 | 5.14032 | 995 ft | 153 kts | 172° |
| 2026-04-28 19:12 | 60.22905 | 5.14331 | 1002 ft | 154 kts | 173° |
| 2026-04-28 19:12 | 60.21835 | 5.14619 | 1007 ft | 156 kts | 173° |
| 2026-04-28 19:13 | 60.20755 | 5.14908 | 1009 ft | 156 kts | 173° |
| 2026-04-28 19:13 | 60.19674 | 5.15197 | 1008 ft | 156 kts | 173° |
| 2026-04-28 19:13 | 60.18594 | 5.15479 | 1008 ft | 155 kts | 174° |
| 2026-04-28 19:13 | 60.17549 | 5.15208 | 991 ft | 153 kts | 195° |
| 2026-04-28 19:14 | 60.16507 | 5.14678 | 992 ft | 155 kts | 194° |
| 2026-04-28 19:14 | 60.15455 | 5.14167 | 994 ft | 155 kts | 194° |
| 2026-04-28 19:14 | 60.14399 | 5.13658 | 996 ft | 156 kts | 194° |
| 2026-04-28 19:14 | 60.13339 | 5.13147 | 997 ft | 156 kts | 194° |
| 2026-04-28 19:15 | 60.12289 | 5.12644 | 999 ft | 156 kts | 194° |
| 2026-04-28 19:15 | 60.11215 | 5.12425 | 991 ft | 155 kts | 185° |
| 2026-04-28 19:15 | 60.10133 | 5.12238 | 991 ft | 156 kts | 186° |
| 2026-04-28 19:15 | 60.09413 | 5.12112 | 992 ft | 156 kts | 186° |
| 2026-04-28 19:16 | 60.08032 | 5.11880 | 1219 ft | 145 kts | 185° |
| 2026-04-28 19:16 | 60.07042 | 5.11716 | 1407 ft | 141 kts | 185° |
| 2026-04-28 19:16 | 60.06114 | 5.11562 | 1636 ft | 138 kts | 185° |
| 2026-04-28 19:16 | 60.05156 | 5.11403 | 1823 ft | 142 kts | 186° |
| 2026-04-28 19:17 | 60.04155 | 5.11238 | 1996 ft | 148 kts | 185° |
| 2026-04-28 19:17 | 60.03073 | 5.11058 | 2009 ft | 160 kts | 185° |
| 2026-04-28 19:17 | 60.01952 | 5.10872 | 2010 ft | 166 kts | 185° |
| 2026-04-28 19:17 | 60.00780 | 5.10679 | 2010 ft | 169 kts | 185° |
| 2026-04-28 19:18 | 59.99595 | 5.10483 | 2012 ft | 171 kts | 185° |
| 2026-04-28 19:18 | 59.98414 | 5.10291 | 2010 ft | 171 kts | 185° |
| 2026-04-28 19:18 | 59.97223 | 5.10100 | 2008 ft | 170 kts | 184° |
| 2026-04-28 19:18 | 59.96094 | 5.10651 | 1990 ft | 168 kts | 149° |
| 2026-04-28 19:19 | 59.95098 | 5.11827 | 1997 ft | 169 kts | 147° |
| 2026-04-28 19:19 | 59.94083 | 5.13008 | 2000 ft | 169 kts | 147° |
| 2026-04-28 19:19 | 59.93065 | 5.14189 | 2001 ft | 169 kts | 147° |
| 2026-04-28 19:19 | 59.92047 | 5.15373 | 2003 ft | 169 kts | 147° |
| 2026-04-28 19:20 | 59.91038 | 5.16544 | 2010 ft | 169 kts | 147° |
| 2026-04-28 19:20 | 59.90013 | 5.17733 | 2012 ft | 168 kts | 147° |
| 2026-04-28 19:20 | 59.89015 | 5.18889 | 2004 ft | 163 kts | 147° |
| 2026-04-28 19:20 | 59.88037 | 5.20024 | 1997 ft | 162 kts | 147° |
| 2026-04-28 19:21 | 59.87080 | 5.21131 | 1997 ft | 160 kts | 147° |
| 2026-04-28 19:21 | 59.86120 | 5.22242 | 2000 ft | 159 kts | 147° |
| 2026-04-28 19:21 | 59.85162 | 5.23350 | 1997 ft | 159 kts | 147° |
| 2026-04-28 19:21 | 59.84207 | 5.24453 | 2001 ft | 158 kts | 147° |
| 2026-04-28 19:22 | 59.83254 | 5.25555 | 2006 ft | 159 kts | 147° |
| 2026-04-28 19:22 | 59.82944 | 5.25912 | 2006 ft | 159 kts | 147° |
| 2026-04-28 19:22 | 59.81392 | 5.27700 | 1978 ft | 139 kts | 148° |
| 2026-04-28 19:22 | 59.80598 | 5.28615 | 1983 ft | 128 kts | 148° |
| 2026-04-28 19:23 | 59.79844 | 5.29485 | 1977 ft | 122 kts | 148° |
| 2026-04-28 19:23 | 59.79133 | 5.30302 | 1907 ft | 117 kts | 148° |
| 2026-04-28 19:23 | 59.78471 | 5.31058 | 1543 ft | 108 kts | 149° |
| 2026-04-28 19:23 | 59.77857 | 5.31848 | 1225 ft | 99 kts | 143° |
| 2026-04-28 19:24 | 59.77313 | 5.32711 | 1021 ft | 102 kts | 138° |
| 2026-04-28 19:24 | 59.77104 | 5.34000 | 873 ft | 103 kts | 79° |
| 2026-04-28 19:24 | 59.77467 | 5.35059 | 771 ft | 91 kts | 24° |
| 2026-04-28 19:24 | 59.78013 | 5.35416 | 481 ft | 77 kts | 358° |
| 2026-04-28 19:25 | 59.78516 | 5.35033 | 280 ft | 79 kts | 322° |
| 2026-04-28 19:25 | 59.78904 | 5.34468 | 207 ft | 55 kts | 328° |
| 2026-04-28 19:25 | 59.79156 | 5.34128 | 212 ft | 25 kts | 325° |
| 2026-04-28 19:25 | 59.79228 | 5.34177 | 213 ft | 8 kts | 45° |
| 2026-04-28 19:26 | 59.79230 | 5.34180 | 212 ft | 0 kts | 38° |
| 2026-04-28 19:27 | 59.79236 | 5.34187 | 213 ft | 7 kts | 18° |
| 2026-04-28 19:28 | 59.79280 | 5.34146 | 213 ft | 11 kts | 331° |
| 2026-04-28 19:28 | 59.79315 | 5.34130 | 212 ft | 4 kts | 14° |
| 2026-04-28 19:28 | 59.79316 | 5.34131 | 212 ft | 0 kts | 15° |